Time;durP1;ratioP1;P1;durP2;ratioP2;P2;SDS_P1;SDS_P2;PMS_P1;PMS_P2;Temp;Humidity;BMP_temperature;BMP_pressure;BME280_temperature;BME280_humidity;BME280_pressure;Samples;Min_cycle;Max_cycle;Signal;HPM_P1;HPM_P2
2022/03/09 00:01:48;;;;;;;80.15;36.53;;;;;;;1.31;78.94;101586.66;5061794;56;1138662;-71
2022/03/09 00:06:54;;;;;;;83.00;37.05;;;;;;;1.25;79.81;101580.27;5095881;56;1138934;-68
2022/03/09 00:12:00;;;;;;;93.00;39.08;;;;;;;1.38;80.21;101576.92;5028719;56;1178582;-67
2022/03/09 00:17:06;;;;;;;97.47;43.33;;;;;;;1.58;80.93;101576.48;5030018;56;1138663;-69
2022/03/09 00:22:12;;;;;;;114.53;50.70;;;;;;;1.69;81.30;101558.37;5029869;56;1138618;-69
2022/03/09 00:27:18;;;;;;;123.40;52.73;;;;;;;1.84;80.95;101559.73;5035022;56;1141044;-68
2022/03/09 00:32:24;;;;;;;92.33;41.43;;;;;;;1.78;79.93;101553.39;5107597;56;1140777;-69
2022/03/09 00:37:29;;;;;;;95.73;44.83;;;;;;;1.65;80.02;101560.66;5079247;56;1138957;-70
2022/03/09 00:42:40;;;;;;;98.77;41.27;;;;;;;1.61;80.19;101561.63;5113967;56;1138767;-70
2022/03/09 00:47:46;;;;;;;97.90;46.17;;;;;;;1.64;80.38;101564.61;5095771;56;1144655;-69
2022/03/09 00:52:52;;;;;;;99.63;43.67;;;;;;;1.71;80.71;101568.31;5098864;56;1138831;-71
2022/03/09 00:57:59;;;;;;;82.30;35.33;;;;;;;1.73;80.23;101561.31;5009581;57;1138807;-70
2022/03/09 01:03:04;;;;;;;71.37;34.00;;;;;;;1.75;80.09;101562.59;5018535;57;1138881;-68
2022/03/09 01:08:11;;;;;;;81.90;34.78;;;;;;;1.78;79.75;101563.82;4973822;57;1138907;-66
2022/03/09 01:13:18;;;;;;;84.20;37.57;;;;;;;1.76;79.18;101568.22;5013510;57;1138908;-66
2022/03/09 01:18:24;;;;;;;92.83;36.50;;;;;;;1.41;77.93;101560.78;5013622;58;1138757;-69
2022/03/09 01:23:31;;;;;;;89.13;37.28;;;;;;;0.94;78.49;101557.92;5013652;57;1138864;-68
2022/03/09 01:28:37;;;;;;;74.80;31.20;;;;;;;0.76;79.51;101558.34;5016030;57;1139052;-68
2022/03/09 01:33:43;;;;;;;64.77;29.47;;;;;;;0.78;80.41;101555.23;5007018;57;1257872;-67
2022/03/09 01:38:49;;;;;;;58.35;24.07;;;;;;;0.73;80.79;101562.30;4983835;57;1138873;-68
2022/03/09 01:44:17;;;;;;;52.65;24.98;;;;;;;0.77;81.28;101562.63;5010671;57;1138854;-68
2022/03/09 01:49:24;;;;;;;55.87;24.37;;;;;;;0.83;80.98;101556.45;5016322;57;1139042;-67
2022/03/09 01:54:31;;;;;;;64.57;26.87;;;;;;;0.76;80.87;101559.64;5028616;56;1138816;-68
2022/03/09 01:59:36;;;;;;;55.97;26.00;;;;;;;0.88;81.59;101565.03;5050133;56;1138885;-68
2022/03/09 02:04:43;;;;;;;59.40;25.03;;;;;;;0.79;80.34;101567.81;4942354;58;1138884;-68
2022/03/09 02:09:49;;;;;;;66.77;25.68;;;;;;;0.55;80.48;101570.47;5027898;57;1138955;-68
2022/03/09 02:14:55;;;;;;;66.96;27.40;;;;;;;0.33;80.61;101570.87;5050113;56;1139076;-68
2022/03/09 02:20:01;;;;;;;62.47;25.47;;;;;;;0.30;81.13;101568.80;4946482;58;1139246;-67
2022/03/09 02:25:11;;;;;;;75.30;28.23;;;;;;;0.44;81.66;101564.63;5049902;56;1139129;-68
2022/03/09 02:30:20;;;;;;;71.13;27.80;;;;;;;0.46;81.46;101564.98;5049540;56;1138817;-66
2022/03/09 02:35:25;;;;;;;52.57;19.97;;;;;;;0.58;81.68;101560.87;4946403;58;1138800;-67
2022/03/09 02:40:31;;;;;;;48.87;19.53;;;;;;;0.58;80.96;101546.55;5050106;56;1138749;-68
2022/03/09 02:45:37;;;;;;;52.70;22.13;;;;;;;0.39;80.86;101549.09;5050111;56;1138802;-67
2022/03/09 02:50:43;;;;;;;56.50;23.73;;;;;;;0.28;80.99;101555.81;4946099;58;1138873;-68
2022/03/09 02:55:49;;;;;;;40.33;18.00;;;;;;;0.35;81.63;101560.44;5033163;56;1146327;-68
2022/03/09 03:00:56;;;;;;;48.52;19.98;;;;;;;0.44;81.65;101561.58;5016203;57;1139091;-66
2022/03/09 03:06:01;;;;;;;37.80;18.40;;;;;;;0.49;81.94;101560.17;5016272;57;1138802;-68
2022/03/09 03:11:10;;;;;;;49.67;21.87;;;;;;;0.59;82.33;101553.91;5012130;57;1139076;-66
2022/03/09 03:16:16;;;;;;;47.40;20.40;;;;;;;0.65;81.76;101553.33;5015865;57;1138971;-68
2022/03/09 03:21:22;;;;;;;44.50;20.00;;;;;;;0.60;81.01;101561.70;5015661;57;1138850;-65
2022/03/09 03:26:28;;;;;;;41.43;19.33;;;;;;;0.57;80.87;101562.19;5015815;57;1138979;-68
2022/03/09 03:31:34;;;;;;;35.17;17.87;;;;;;;0.27;80.61;101565.80;5015376;57;1138878;-69
2022/03/09 03:36:39;;;;;;;42.50;19.67;;;;;;;0.27;80.61;101565.80;5015679;57;1138864;-68
2022/03/09 03:41:45;;;;;;;42.17;19.40;;;;;;;0.32;81.11;101563.95;5035464;57;1138660;-69
2022/03/09 03:46:51;;;;;;;48.15;20.23;;;;;;;0.32;81.17;101556.14;5016348;57;1138823;-71
2022/03/09 03:51:57;;;;;;;45.73;20.48;;;;;;;0.39;81.15;101567.30;4928343;58;1138699;-69
2022/03/09 03:57:03;;;;;;;48.40;22.80;;;;;;;0.35;80.48;101574.75;4984404;57;1138761;-70
2022/03/09 04:02:10;;;;;;;45.52;20.43;;;;;;;0.02;79.77;101567.55;5039014;57;1138772;-70
2022/03/09 04:07:16;;;;;;;44.93;20.73;;;;;;;0.02;79.77;101567.55;5039611;57;1138682;-69
2022/03/09 04:12:23;;;;;;;41.95;18.98;;;;;;;-0.01;80.37;101565.44;5085301;56;1138692;-69
2022/03/09 04:17:29;;;;;;;48.50;19.03;;;;;;;-0.24;79.59;101561.05;5044997;57;1140645;-69
2022/03/09 04:22:34;;;;;;;49.07;20.43;;;;;;;-0.23;80.67;101573.17;4972873;57;1140847;-69
2022/03/09 04:27:40;;;;;;;48.33;19.40;;;;;;;-0.16;81.13;101580.00;5101951;56;1140837;-69
2022/03/09 04:32:46;;;;;;;51.60;20.57;;;;;;;-0.08;81.12;101579.86;5043073;57;1152344;-69
2022/03/09 04:37:52;;;;;;;45.73;20.37;;;;;;;-0.06;80.53;101576.36;5102453;56;1140740;-69
2022/03/09 04:42:58;;;;;;;45.50;18.57;;;;;;;-0.26;79.61;101577.12;5092153;56;1140853;-69
2022/03/09 04:48:03;;;;;;;40.50;18.77;;;;;;;-0.39;79.76;101580.36;4993099;57;1140878;-69
2022/03/09 04:53:10;;;;;;;46.10;20.07;;;;;;;-0.45;80.04;101574.38;4970895;57;1140877;-69
2022/03/09 04:58:17;;;;;;;91.77;27.77;;;;;;;-0.74;79.69;101580.88;5012871;57;1140852;-69
2022/03/09 05:03:22;;;;;;;67.57;22.27;;;;;;;-1.09;80.12;101587.00;5014430;57;1141005;-69
2022/03/09 05:08:28;;;;;;;58.67;23.00;;;;;;;-1.27;80.75;101591.11;4934226;57;1140855;-69
2022/03/09 05:13:33;;;;;;;48.33;19.97;;;;;;;-1.20;81.81;101586.25;4934724;58;1140796;-69
2022/03/09 05:18:40;;;;;;;45.47;19.87;;;;;;;-1.09;82.11;101585.70;4934648;58;1140764;-69
2022/03/09 05:23:47;;;;;;;62.23;21.43;;;;;;;-1.20;82.18;101590.14;5024635;57;1140935;-71
2022/03/09 05:28:53;;;;;;;52.80;22.93;;;;;;;-1.38;82.25;101603.36;4952697;57;1141224;-69
2022/03/09 05:33:59;;;;;;;87.07;40.40;;;;;;;-1.23;83.67;101608.38;5030942;56;1141088;-70
2022/03/09 05:39:05;;;;;;;150.72;64.95;;;;;;;-1.00;83.77;101598.55;4964466;57;1140934;-69
2022/03/09 05:44:11;;;;;;;429.90;153.57;;;;;;;-0.80;84.00;101604.35;5015059;57;1143038;-70
2022/03/09 05:49:17;;;;;;;326.33;118.97;;;;;;;-0.65;83.54;101595.92;5015002;57;1144969;-69
2022/03/09 05:54:23;;;;;;;145.50;55.83;;;;;;;-0.72;82.85;101597.30;5077387;56;1145205;-70
2022/03/09 05:59:28;;;;;;;111.17;44.40;;;;;;;-0.66;83.46;101613.69;5015272;56;1143060;-69
2022/03/09 06:04:34;;;;;;;187.47;74.17;;;;;;;-0.49;84.06;101609.11;4934227;58;1142934;-70
2022/03/09 06:09:40;;;;;;;212.87;86.47;;;;;;;-0.25;84.37;101606.13;4896181;57;1143015;-71
2022/03/09 06:14:46;;;;;;;134.47;53.37;;;;;;;-0.05;84.81;101611.88;4883706;57;1143020;-70
2022/03/09 06:19:53;;;;;;;101.67;41.77;;;;;;;0.17;84.05;101617.56;4967458;56;1142959;-70
2022/03/09 06:24:59;;;;;;;73.10;29.47;;;;;;;0.21;83.46;101611.86;4968595;57;1140999;-69
2022/03/09 06:30:05;;;;;;;65.50;28.10;;;;;;;0.29;83.52;101615.20;4970658;57;1138991;-69
2022/03/09 06:35:12;;;;;;;67.67;32.17;;;;;;;0.21;83.42;101617.07;4949461;57;1138925;-69
2022/03/09 06:40:18;;;;;;;89.53;37.30;;;;;;;0.27;84.03;101611.33;4984531;57;1138869;-69
2022/03/09 06:45:24;;;;;;;72.50;28.93;;;;;;;0.41;84.64;101616.28;4946003;58;1138799;-69
2022/03/09 06:50:30;;;;;;;46.17;19.83;;;;;;;0.59;85.18;101608.14;4946257;58;1138778;-70
2022/03/09 06:55:36;;;;;;;49.90;19.50;;;;;;;0.69;85.75;101607.06;4972167;58;1139223;-70
2022/03/09 07:00:42;;;;;;;40.28;18.30;;;;;;;0.82;86.48;101599.00;5086661;56;1138834;-69
2022/03/09 07:05:52;;;;;;;37.40;17.20;;;;;;;0.95;87.07;101603.06;5086530;55;1138980;-70
2022/03/09 07:10:59;;;;;;;42.98;19.57;;;;;;;1.02;87.81;101612.04;5099858;56;1139242;-69
2022/03/09 07:16:05;;;;;;;52.07;19.60;;;;;;;1.21;88.48;101612.95;5070198;56;1139064;-69
2022/03/09 07:21:13;;;;;;;44.30;19.73;;;;;;;1.39;89.41;101599.05;5066835;56;1138734;-69
2022/03/09 07:26:18;;;;;;;37.48;17.27;;;;;;;1.44;88.93;101604.17;5126426;56;1138833;-69
2022/03/09 07:31:24;;;;;;;39.33;16.53;;;;;;;1.67;89.22;101603.66;5180037;55;1138852;-69
2022/03/09 07:36:30;;;;;;;47.10;21.93;;;;;;;1.91;89.93;101610.02;5130610;56;1139063;-69
2022/03/09 07:41:36;;;;;;;28.80;14.60;;;;;;;2.28;90.44;101604.75;5044582;56;1139058;-70
2022/03/09 07:46:43;;;;;;;31.97;16.33;;;;;;;2.72;89.76;101614.84;5052164;56;1138843;-70
2022/03/09 07:51:49;;;;;;;35.27;15.93;;;;;;;2.84;88.87;101616.25;5052116;56;1138886;-70
2022/03/09 07:56:56;;;;;;;45.67;20.67;;;;;;;3.10;89.05;101624.64;4989714;56;1144856;-70
2022/03/09 08:02:01;;;;;;;62.43;25.57;;;;;;;3.29;88.84;101632.36;4970443;57;1139063;-69
2022/03/09 08:07:08;;;;;;;37.93;16.07;;;;;;;3.43;88.47;101631.95;5047593;56;1139734;-70
2022/03/09 08:12:14;;;;;;;40.70;18.90;;;;;;;3.49;87.04;101630.46;5048290;56;1138850;-70
2022/03/09 08:17:19;;;;;;;42.63;18.47;;;;;;;3.46;87.34;101637.09;5164696;55;1138872;-68
2022/03/09 08:22:26;;;;;;;64.80;29.80;;;;;;;3.61;86.73;101639.23;5091332;56;1138932;-69
2022/03/09 08:27:32;;;;;;;31.50;15.37;;;;;;;3.63;86.19;101644.42;5179151;55;1138889;-70
2022/03/09 08:32:37;;;;;;;37.67;18.47;;;;;;;3.59;86.16;101642.34;5117873;56;1139085;-69
2022/03/09 08:37:44;;;;;;;45.13;19.83;;;;;;;3.75;86.36;101646.20;5176306;55;1138855;-71
2022/03/09 08:42:50;;;;;;;32.80;18.17;;;;;;;3.88;86.66;101644.91;5171556;55;1138767;-69
2022/03/09 08:47:56;;;;;;;31.00;17.02;;;;;;;4.12;86.97;101651.13;5144697;55;1138908;-71
2022/03/09 08:53:03;;;;;;;34.17;16.57;;;;;;;4.46;86.51;101651.28;5206830;55;1138958;-70
2022/03/09 08:58:09;;;;;;;25.08;11.70;;;;;;;4.70;86.60;101648.28;5130996;56;1138927;-70
2022/03/09 09:03:14;;;;;;;35.93;19.53;;;;;;;4.96;84.86;101636.39;5084073;56;1138692;-69
2022/03/09 09:08:21;;;;;;;41.47;19.17;;;;;;;5.05;84.68;101649.16;5086119;56;1138666;-70
2022/03/09 09:13:26;;;;;;;28.60;16.60;;;;;;;5.21;84.65;101650.76;5036197;56;1138751;-70
2022/03/09 09:18:32;;;;;;;38.00;19.53;;;;;;;5.43;84.65;101654.30;4974125;57;1138668;-69
2022/03/09 09:23:39;;;;;;;29.20;16.97;;;;;;;5.52;83.71;101662.26;4974004;57;1138782;-70
2022/03/09 09:28:45;;;;;;;34.37;18.67;;;;;;;5.61;82.75;101649.66;4974233;57;1138812;-69
2022/03/09 09:33:51;;;;;;;36.57;17.80;;;;;;;5.59;82.36;101654.56;4973632;57;1138913;-69
2022/03/09 09:38:57;;;;;;;30.37;16.93;;;;;;;5.72;83.04;101659.73;4996284;56;1138852;-70
2022/03/09 09:44:04;;;;;;;30.27;15.97;;;;;;;5.63;80.92;101649.59;5011485;56;1138785;-69
2022/03/09 09:49:15;;;;;;;32.35;16.52;;;;;;;5.67;80.85;101651.16;5026835;56;1138795;-69
2022/03/09 09:54:24;;;;;;;32.87;16.23;;;;;;;5.57;80.88;101651.14;5030587;56;1138912;-70
2022/03/09 09:59:30;;;;;;;39.23;20.57;;;;;;;5.64;81.37;101650.86;4969853;58;1138707;-69
2022/03/09 10:04:36;;;;;;;29.33;16.93;;;;;;;5.84;82.27;101653.13;4993248;57;1138940;-70
2022/03/09 10:09:45;;;;;;;27.63;14.10;;;;;;;6.24;82.05;101653.27;5046082;56;1138864;-70
2022/03/09 10:14:54;;;;;;;71.30;27.62;;;;;;;6.42;80.03;101662.12;5056689;56;1138724;-69
2022/03/09 10:20:12;;;;;;;32.83;18.63;;;;;;;6.53;78.13;101663.87;5048626;56;1148662;-70
2022/03/09 10:25:20;;;;;;;30.30;15.33;;;;;;;6.65;79.86;101664.66;5171936;55;1139089;-69
2022/03/09 10:30:35;;;;;;;35.73;17.75;;;;;;;6.84;77.77;101665.17;5045198;56;1138746;-70
2022/03/09 10:35:49;;;;;;;33.93;18.83;;;;;;;6.87;77.86;101670.30;5185808;55;1138951;-70
2022/03/09 10:41:00;;;;;;;32.37;18.13;;;;;;;7.09;78.94;101675.45;5185339;55;1138890;-70
2022/03/09 10:46:16;;;;;;;37.05;20.27;;;;;;;7.34;78.31;101676.89;5131845;55;1138967;-71
2022/03/09 10:51:34;;;;;;;40.43;20.87;;;;;;;7.35;76.26;101668.54;5172759;55;1139011;-69
2022/03/09 10:56:40;;;;;;;40.57;21.57;;;;;;;7.32;76.45;101667.39;5137321;55;1175631;-69
2022/03/09 11:02:07;;;;;;;39.97;20.80;;;;;;;7.26;75.63;101677.72;5108585;56;1138810;-70
2022/03/09 11:07:13;;;;;;;42.47;21.03;;;;;;;7.30;76.43;101674.04;5013149;57;1138988;-70
2022/03/09 11:12:19;;;;;;;41.83;22.13;;;;;;;7.44;76.46;101674.72;5077482;56;1138865;-70
2022/03/09 11:17:25;;;;;;;47.37;22.10;;;;;;;7.52;75.09;101666.45;5079778;56;1138879;-70
2022/03/09 11:22:31;;;;;;;45.07;22.23;;;;;;;7.49;74.57;101666.12;5037895;56;1139164;-71
2022/03/09 11:27:47;;;;;;;43.17;22.50;;;;;;;7.45;75.16;101668.99;5022411;57;1138814;-70
2022/03/09 11:32:55;;;;;;;49.47;22.30;;;;;;;7.49;74.56;101662.64;5061694;55;1139032;-71
2022/03/09 11:38:01;;;;;;;39.80;22.67;;;;;;;7.72;75.17;101661.11;5060752;55;1138878;-70
2022/03/09 11:43:30;;;;;;;39.42;22.07;;;;;;;7.88;74.61;101659.91;5073095;56;1138902;-70
2022/03/09 11:48:54;;;;;;;36.50;20.97;;;;;;;8.09;74.51;101653.16;4914113;58;1138986;-72
2022/03/09 11:54:01;;;;;;;31.17;17.27;;;;;;;8.43;73.22;101664.66;4918489;57;1138892;-71
2022/03/09 11:59:18;;;;;;;32.03;15.32;;;;;;;8.56;70.86;101650.38;4903307;58;1138831;-72
2022/03/09 12:04:59;;;;;;;25.02;12.90;;;;;;;8.56;68.22;101661.78;4942750;57;1138911;-72
2022/03/09 12:10:09;;;;;;;45.83;16.97;;;;;;;8.68;67.90;101665.61;4889065;59;1139386;-70
2022/03/09 12:15:17;;;;;;;30.00;13.43;;;;;;;8.81;68.31;101664.03;4960306;58;1139073;-71
2022/03/09 12:20:31;;;;;;;30.45;16.10;;;;;;;8.99;64.94;101663.08;4974910;56;1138947;-69
2022/03/09 12:25:46;;;;;;;24.70;12.77;;;;;;;9.04;66.84;101661.49;5059307;56;1138715;-70
2022/03/09 12:30:58;;;;;;;26.73;14.83;;;;;;;9.27;65.67;101661.60;5130820;55;1138921;-69
2022/03/09 12:36:20;;;;;;;22.17;11.88;;;;;;;9.40;65.61;101661.31;5133134;55;1138893;-70
2022/03/09 12:41:37;;;;;;;32.20;16.50;;;;;;;9.67;65.51;101650.55;5065607;55;1138751;-70
2022/03/09 12:46:46;;;;;;;25.13;13.70;;;;;;;9.91;64.83;101650.97;5071187;56;1138768;-70
2022/03/09 12:51:58;;;;;;;17.67;9.40;;;;;;;10.09;62.57;101652.54;5086001;56;1140779;-70
2022/03/09 12:57:12;;;;;;;29.85;14.83;;;;;;;10.20;58.93;101649.33;5088773;56;1140954;-70
2022/03/09 13:02:22;;;;;;;23.23;11.57;;;;;;;10.17;60.20;101653.44;5051931;56;1142834;-70
2022/03/09 13:07:26;;;;;;;21.63;11.23;;;;;;;10.27;58.57;101649.81;5046542;56;1142873;-70
2022/03/09 13:12:33;;;;;;;22.23;12.37;;;;;;;10.17;56.03;101653.44;5102736;56;1143089;-69
2022/03/09 13:17:49;;;;;;;19.87;12.58;;;;;;;10.26;59.28;101644.99;5116699;55;1143109;-70
2022/03/09 13:22:55;;;;;;;36.10;14.23;;;;;;;10.32;57.75;101637.19;5128414;56;1143003;-70
2022/03/09 13:28:09;;;;;;;29.77;15.93;;;;;;;10.40;59.57;101631.81;5162580;55;1142780;-70
2022/03/09 13:33:15;;;;;;;45.10;36.93;;;;;;;10.56;58.66;101631.28;5185582;55;1142887;-70
2022/03/09 13:38:27;;;;;;;38.13;27.22;;;;;;;10.53;55.61;101630.64;5173826;55;1142883;-70
2022/03/09 13:43:40;;;;;;;33.40;19.17;;;;;;;10.52;57.91;101621.00;5134073;55;1142814;-70
2022/03/09 13:48:46;;;;;;;42.07;26.60;;;;;;;10.72;58.51;101625.92;5127280;55;1142955;-70
2022/03/09 13:53:54;;;;;;;27.10;15.37;;;;;;;10.88;59.27;101622.72;5122552;55;1142879;-72
2022/03/09 13:59:00;;;;;;;31.20;15.23;;;;;;;11.08;58.33;101624.14;5139845;56;1146498;-72
2022/03/09 14:04:11;;;;;;;25.30;12.53;;;;;;;11.22;57.36;101617.52;5167488;55;1142825;-71
2022/03/09 14:09:18;;;;;;;62.03;33.67;;;;;;;11.25;57.29;101621.77;5209989;55;1142766;-72
2022/03/09 14:14:24;;;;;;;58.10;29.10;;;;;;;10.99;54.96;101615.47;5197792;55;1142939;-72
2022/03/09 14:19:29;;;;;;;19.83;11.90;;;;;;;10.91;52.55;101619.03;5107733;56;1143260;-72
2022/03/09 14:24:36;;;;;;;188.07;57.13;;;;;;;10.96;55.27;101614.80;5106755;56;1142772;-72
2022/03/09 14:29:42;;;;;;;30.23;13.40;;;;;;;11.03;54.49;101620.06;4949110;57;1144804;-72
2022/03/09 14:34:47;;;;;;;23.70;11.90;;;;;;;11.14;55.87;101630.87;4951994;57;1142932;-71
2022/03/09 14:39:53;;;;;;;26.03;10.33;;;;;;;11.13;55.93;101630.02;4958704;57;1143063;-71
2022/03/09 14:45:00;;;;;;;30.10;15.57;;;;;;;11.14;55.26;101631.72;4888271;58;1142976;-72
2022/03/09 14:50:08;;;;;;;28.65;13.38;;;;;;;11.13;55.21;101623.87;5106872;55;1142859;-72
2022/03/09 14:55:14;;;;;;;31.02;16.62;;;;;;;11.06;55.92;101627.83;5192912;55;1142855;-72
2022/03/09 15:00:20;;;;;;;27.50;14.83;;;;;;;11.17;56.82;101620.91;5118306;55;1142780;-72
2022/03/09 15:05:26;;;;;;;35.27;14.97;;;;;;;11.19;57.81;101635.38;5021994;56;1142764;-72
2022/03/09 15:10:33;;;;;;;36.03;16.93;;;;;;;11.15;57.93;101634.72;5052320;56;1142937;-71
2022/03/09 15:15:39;;;;;;;22.43;14.07;;;;;;;11.07;58.68;101642.77;5000773;56;1142858;-71
2022/03/09 15:20:46;;;;;;;24.33;13.33;;;;;;;11.02;58.58;101643.52;5115743;56;1142797;-71
2022/03/09 15:25:52;;;;;;;23.70;12.97;;;;;;;10.85;58.38;101658.62;5227903;55;1143052;-72
2022/03/09 15:31:00;;;;;;;25.15;13.18;;;;;;;10.76;57.75;101657.88;5227945;55;1142873;-71
2022/03/09 15:36:05;;;;;;;29.30;16.02;;;;;;;10.81;59.72;101657.61;5227932;54;1143002;-71
2022/03/09 15:41:11;;;;;;;22.90;13.37;;;;;;;10.78;58.81;101662.61;5227953;55;1142875;-71
2022/03/09 15:46:16;;;;;;;51.73;24.80;;;;;;;10.69;59.73;101673.75;5215438;55;1143121;-72
2022/03/09 15:51:22;;;;;;;23.23;12.70;;;;;;;10.60;60.11;101669.46;5211813;55;1142853;-72
2022/03/09 15:56:28;;;;;;;24.33;13.07;;;;;;;10.49;60.38;101679.36;5088530;56;1143106;-72
2022/03/09 16:01:34;;;;;;;41.87;17.77;;;;;;;10.82;62.08;101683.98;5193415;55;1143013;-72
2022/03/09 16:06:40;;;;;;;67.20;25.77;;;;;;;12.06;60.44;101684.19;5140180;55;1143010;-71
2022/03/09 16:11:46;;;;;;;51.33;22.67;;;;;;;13.09;58.80;101685.12;5181041;55;1142895;-72
2022/03/09 16:16:52;;;;;;;41.83;21.57;;;;;;;13.62;56.65;101686.66;5118231;56;1142964;-72
2022/03/09 16:21:58;;;;;;;61.80;28.50;;;;;;;13.65;56.29;101685.11;5161180;55;1143055;-72
2022/03/09 16:27:05;;;;;;;78.10;34.90;;;;;;;12.95;55.74;101694.05;4982616;56;1142952;-71
2022/03/09 16:32:10;;;;;;;73.90;33.00;;;;;;;12.17;57.00;101691.81;4982809;56;1143034;-72
2022/03/09 16:37:17;;;;;;;136.07;70.30;;;;;;;11.71;57.79;101702.32;4982421;56;1143098;-72
2022/03/09 16:42:23;;;;;;;153.67;78.77;;;;;;;11.23;58.06;101704.43;4982108;56;1145113;-72
2022/03/09 16:47:29;;;;;;;157.10;83.13;;;;;;;10.81;58.98;101706.56;5013871;56;1145142;-71
2022/03/09 16:52:35;;;;;;;141.60;72.40;;;;;;;10.53;59.69;101709.99;4970265;57;1145086;-71
2022/03/09 16:57:43;;;;;;;141.67;73.03;;;;;;;10.27;60.20;101710.16;4982201;57;1145063;-72
2022/03/09 17:02:52;;;;;;;145.53;66.03;;;;;;;10.02;60.60;101708.50;4895614;57;1142942;-72
2022/03/09 17:07:59;;;;;;;168.53;72.40;;;;;;;9.72;61.08;101713.70;4982215;57;1143106;-72
2022/03/09 17:13:06;;;;;;;178.00;75.57;;;;;;;9.49;61.63;101720.22;5057819;56;1140912;-71
2022/03/09 17:18:12;;;;;;;160.40;62.05;;;;;;;9.32;62.33;101732.17;4978084;57;1141029;-72
2022/03/09 17:23:19;;;;;;;185.65;66.30;;;;;;;8.94;61.78;101738.97;5049254;56;1140825;-72
2022/03/09 17:28:24;;;;;;;155.57;62.50;;;;;;;8.71;62.76;101740.59;5071197;55;1141058;-72
2022/03/09 17:33:30;;;;;;;179.80;61.77;;;;;;;8.51;62.85;101748.20;5104587;55;1140762;-72
2022/03/09 17:38:37;;;;;;;184.70;63.13;;;;;;;8.29;63.24;101752.30;5133073;55;1140937;-72
2022/03/09 17:43:42;;;;;;;168.83;65.37;;;;;;;8.20;64.03;101763.76;5110305;56;1140924;-72
2022/03/09 17:48:48;;;;;;;178.43;79.80;;;;;;;8.17;64.57;101758.63;5156841;56;1140993;-72
2022/03/09 17:53:56;;;;;;;200.77;77.30;;;;;;;8.12;64.55;101769.37;5189732;55;1140908;-72
2022/03/09 17:59:04;;;;;;;233.55;94.47;;;;;;;8.04;64.57;101773.70;5126296;55;1140973;-73
2022/03/09 18:04:10;;;;;;;220.02;89.95;;;;;;;7.77;63.99;101773.68;5062740;56;1140865;-71
2022/03/09 18:09:17;;;;;;;229.82;88.03;;;;;;;7.47;64.39;101772.44;5055312;56;1141153;-71
2022/03/09 18:14:22;;;;;;;253.60;97.00;;;;;;;7.32;65.27;101778.77;5117732;55;1140958;-71
2022/03/09 18:19:30;;;;;;;310.70;120.70;;;;;;;7.23;65.76;101780.94;5085729;56;1140942;-71
2022/03/09 18:24:35;;;;;;;258.10;105.73;;;;;;;7.20;66.03;101785.86;5094380;56;1143073;-71
2022/03/09 18:29:41;;;;;;;292.10;116.10;;;;;;;7.11;65.86;101788.91;4987476;56;1143033;-71
2022/03/09 18:34:48;;;;;;;311.77;120.50;;;;;;;6.90;65.85;101785.86;4975297;57;1143243;-71
2022/03/09 18:39:53;;;;;;;289.17;116.27;;;;;;;6.87;66.87;101792.59;4994595;57;1142950;-71
2022/03/09 18:44:59;;;;;;;269.93;115.60;;;;;;;6.87;66.83;101806.59;5052528;57;1142962;-71
2022/03/09 18:50:06;;;;;;;287.20;118.97;;;;;;;6.72;66.41;101817.74;4985828;57;1143109;-73
2022/03/09 18:55:12;;;;;;;340.80;137.03;;;;;;;6.62;67.08;101825.12;5037343;57;1142881;-72
2022/03/09 19:00:18;;;;;;;322.57;123.37;;;;;;;6.37;66.73;101829.66;5037530;57;1142941;-71
2022/03/09 19:05:24;;;;;;;307.83;115.70;;;;;;;6.08;66.85;101831.23;5037096;57;1142834;-71
2022/03/09 19:10:29;;;;;;;329.10;129.00;;;;;;;5.91;67.77;101845.86;5121912;55;1142956;-71
2022/03/09 19:15:35;;;;;;;371.63;148.70;;;;;;;5.83;67.94;101852.25;5039929;56;1142868;-71
2022/03/09 19:20:42;;;;;;;434.97;178.60;;;;;;;5.44;68.91;101851.47;5052398;57;1143000;-73
2022/03/09 19:25:47;;;;;;;432.63;174.70;;;;;;;5.44;68.91;101851.47;5043831;57;1143142;-73
2022/03/09 19:30:53;;;;;;;404.57;163.03;;;;;;;5.40;68.99;101851.16;4989616;57;1143019;-72
2022/03/09 19:35:59;;;;;;;416.30;170.50;;;;;;;5.31;69.35;101855.43;4989619;57;1142714;-69
2022/03/09 19:41:05;;;;;;;297.00;128.40;;;;;;;5.15;69.18;101863.42;4893820;58;1142863;-73
2022/03/09 19:46:10;;;;;;;250.35;100.65;;;;;;;4.92;69.71;101863.71;4891371;57;1142905;-71
2022/03/09 19:51:16;;;;;;;287.70;121.67;;;;;;;4.74;70.00;101859.05;5028525;57;1142864;-73
2022/03/09 19:56:22;;;;;;;284.50;118.72;;;;;;;4.46;70.22;101872.17;4923258;58;1142864;-69
2022/03/09 20:01:29;;;;;;;240.37;102.32;;;;;;;4.39;71.34;101878.97;4963803;57;1142793;-69
2022/03/09 20:06:35;;;;;;;201.10;86.13;;;;;;;4.50;71.90;101881.66;5009832;57;1142993;-72
2022/03/09 20:11:41;;;;;;;211.47;90.23;;;;;;;4.58;71.55;101884.89;4955567;57;1140790;-71
2022/03/09 20:16:47;;;;;;;174.27;71.13;;;;;;;4.49;71.61;101885.63;4969424;57;1182780;-73
2022/03/09 20:21:54;;;;;;;142.57;58.53;;;;;;;4.27;71.58;101896.37;4951914;57;1140780;-72
2022/03/09 20:27:00;;;;;;;109.83;47.48;;;;;;;4.04;72.15;101897.87;4969663;57;1140997;-71
2022/03/09 20:32:06;;;;;;;92.90;43.13;;;;;;;4.02;72.75;101906.22;5049023;56;1140959;-70
2022/03/09 20:37:12;;;;;;;100.97;48.60;;;;;;;4.10;73.41;101911.25;5067143;56;1139036;-72
2022/03/09 20:42:18;;;;;;;170.17;66.93;;;;;;;4.09;73.04;101920.01;5120837;56;1140990;-71
2022/03/09 20:47:24;;;;;;;124.50;54.08;;;;;;;3.86;72.65;101924.55;5091891;55;1140879;-71
2022/03/09 20:52:29;;;;;;;102.60;47.00;;;;;;;3.77;73.15;101927.44;5068451;56;1141065;-72
2022/03/09 20:57:35;;;;;;;119.60;47.37;;;;;;;3.70;73.78;101923.25;5070559;56;1140997;-70
2022/03/09 21:02:46;;;;;;;106.40;44.40;;;;;;;3.66;74.17;101931.66;5099985;56;1140808;-70
2022/03/09 21:07:52;;;;;;;115.77;46.73;;;;;;;3.67;74.19;101945.56;5097598;56;1140889;-70
2022/03/09 21:12:57;;;;;;;217.32;96.00;;;;;;;3.45;73.92;101950.52;5061804;56;1140887;-71
2022/03/09 21:18:03;;;;;;;240.40;102.57;;;;;;;3.12;74.43;101954.80;5104357;56;1140848;-71
2022/03/09 21:23:10;;;;;;;250.53;106.60;;;;;;;2.95;75.00;101955.64;5108882;56;1152383;-68
2022/03/09 21:28:16;;;;;;;299.10;122.87;;;;;;;3.10;75.80;101957.90;5045091;56;1142870;-70
2022/03/09 21:33:22;;;;;;;277.38;113.95;;;;;;;3.27;75.97;101966.20;5077617;56;1143025;-70
2022/03/09 21:38:28;;;;;;;308.10;126.60;;;;;;;3.35;75.57;101966.89;5052676;56;1143025;-70
2022/03/09 21:43:35;;;;;;;301.73;119.73;;;;;;;3.36;75.50;101968.58;5077397;56;1143327;-69
2022/03/09 21:48:41;;;;;;;295.77;120.27;;;;;;;3.36;75.26;101962.04;5053297;56;1142984;-72
2022/03/09 21:53:48;;;;;;;314.97;123.73;;;;;;;3.29;75.57;101970.95;5012329;57;1143002;-70
2022/03/09 21:58:53;;;;;;;349.70;136.10;;;;;;;3.29;75.57;101970.95;5036237;57;1143126;-72
2022/03/09 22:03:59;;;;;;;382.83;154.13;;;;;;;3.19;74.94;101979.92;5031657;57;1143005;-71
2022/03/09 22:09:05;;;;;;;447.43;185.63;;;;;;;3.06;74.97;101985.86;4987024;57;1142977;-69
2022/03/09 22:14:13;;;;;;;442.30;177.93;;;;;;;3.01;75.52;101987.73;4974886;57;1142922;-71
2022/03/09 22:19:19;;;;;;;489.48;197.62;;;;;;;3.05;75.96;101993.76;5010851;56;1142985;-70
2022/03/09 22:24:24;;;;;;;469.40;199.77;;;;;;;3.04;75.92;102003.36;5056469;57;1143108;-71
2022/03/09 22:29:30;;;;;;;480.90;194.73;;;;;;;3.04;75.89;102015.12;5056453;57;1143013;-71
2022/03/09 22:34:36;;;;;;;423.03;164.50;;;;;;;3.04;75.92;102020.34;5043794;57;1142973;-70
2022/03/09 22:39:41;;;;;;;432.93;175.60;;;;;;;2.95;75.56;102019.67;5043761;57;1143150;-69
2022/03/09 22:44:47;;;;;;;414.60;165.73;;;;;;;2.97;76.25;102025.28;5043553;57;1142823;-69
2022/03/09 22:49:53;;;;;;;385.47;146.50;;;;;;;2.97;76.15;102012.21;5027252;57;1143198;-70